sensor_id;sensor_type;location;lat;lon;timestamp;pressure;altitude;pressure_sealevel;temperature;humidity
10460;BME280;54412;51.206;6.888;2023-10-19T00:00:42;98774.66;;;12.60;100.00
10460;BME280;54412;51.206;6.888;2023-10-19T00:03:12;98760.03;;;12.56;100.00
10460;BME280;54412;51.206;6.888;2023-10-19T00:05:38;98763.38;;;12.58;100.00
10460;BME280;54412;51.206;6.888;2023-10-19T00:08:06;98759.22;;;12.66;100.00
10460;BME280;54412;51.206;6.888;2023-10-19T00:10:38;98757.44;;;12.66;100.00
10460;BME280;54412;51.206;6.888;2023-10-19T00:13:05;98754.78;;;12.66;100.00
10460;BME280;54412;51.206;6.888;2023-10-19T00:15:35;98745.16;;;12.55;100.00
10460;BME280;54412;51.206;6.888;2023-10-19T00:18:06;98751.44;;;12.64;100.00
10460;BME280;54412;51.206;6.888;2023-10-19T00:20:49;98750.63;;;12.73;100.00
10460;BME280;54412;51.206;6.888;2023-10-19T00:23:23;98758.38;;;12.65;100.00
10460;BME280;54412;51.206;6.888;2023-10-19T00:26:02;98749.63;;;12.65;100.00
10460;BME280;54412;51.206;6.888;2023-10-19T00:28:43;98741.84;;;12.73;100.00
10460;BME280;54412;51.206;6.888;2023-10-19T00:31:12;98741.81;;;12.63;100.00
10460;BME280;54412;51.206;6.888;2023-10-19T00:33:39;98735.56;;;12.74;100.00
10460;BME280;54412;51.206;6.888;2023-10-19T00:36:09;98728.34;;;12.85;100.00
10460;BME280;54412;51.206;6.888;2023-10-19T00:38:40;98733.81;;;12.93;100.00
10460;BME280;54412;51.206;6.888;2023-10-19T00:41:17;98725.56;;;12.77;100.00
10460;BME280;54412;51.206;6.888;2023-10-19T00:43:53;98722.22;;;12.75;100.00
10460;BME280;54412;51.206;6.888;2023-10-19T00:46:36;98727.09;;;12.80;100.00
10460;BME280;54412;51.206;6.888;2023-10-19T00:49:10;98731.44;;;12.81;100.00
10460;BME280;54412;51.206;6.888;2023-10-19T00:51:52;98727.63;;;12.74;100.00
10460;BME280;54412;51.206;6.888;2023-10-19T00:54:48;98728.91;;;12.79;100.00
10460;BME280;54412;51.206;6.888;2023-10-19T00:57:20;98720.72;;;12.82;100.00
10460;BME280;54412;51.206;6.888;2023-10-19T00:59:47;98725.84;;;12.84;100.00
10460;BME280;54412;51.206;6.888;2023-10-19T01:02:14;98732.13;;;12.92;100.00
10460;BME280;54412;51.206;6.888;2023-10-19T01:04:52;98730.59;;;12.99;100.00
10460;BME280;54412;51.206;6.888;2023-10-19T01:07:25;98738.41;;;13.01;100.00
10460;BME280;54412;51.206;6.888;2023-10-19T01:10:03;98737.03;;;12.97;100.00
10460;BME280;54412;51.206;6.888;2023-10-19T01:12:34;98744.78;;;12.89;100.00
10460;BME280;54412;51.206;6.888;2023-10-19T01:15:15;98739.69;;;13.06;100.00
10460;BME280;54412;51.206;6.888;2023-10-19T01:17:44;98737.75;;;13.08;100.00
10460;BME280;54412;51.206;6.888;2023-10-19T01:20:16;98730.25;;;13.04;100.00
10460;BME280;54412;51.206;6.888;2023-10-19T01:23:05;98721.00;;;12.98;100.00
10460;BME280;54412;51.206;6.888;2023-10-19T01:25:56;98728.41;;;13.04;100.00
10460;BME280;54412;51.206;6.888;2023-10-19T01:28:35;98735.09;;;13.08;100.00
10460;BME280;54412;51.206;6.888;2023-10-19T01:31:15;98730.81;;;13.07;100.00
10460;BME280;54412;51.206;6.888;2023-10-19T01:33:53;98733.31;;;13.18;100.00
10460;BME280;54412;51.206;6.888;2023-10-19T01:36:23;98729.53;;;13.21;100.00
10460;BME280;54412;51.206;6.888;2023-10-19T01:38:57;98723.00;;;13.25;100.00
10460;BME280;54412;51.206;6.888;2023-10-19T01:41:27;98732.50;;;13.27;100.00
10460;BME280;54412;51.206;6.888;2023-10-19T01:43:54;98720.91;;;13.19;100.00
10460;BME280;54412;51.206;6.888;2023-10-19T01:46:23;98720.47;;;13.14;100.00
10460;BME280;54412;51.206;6.888;2023-10-19T01:48:53;98718.81;;;13.22;100.00
10460;BME280;54412;51.206;6.888;2023-10-19T01:51:26;98718.69;;;13.24;100.00
10460;BME280;54412;51.206;6.888;2023-10-19T01:53:55;98714.78;;;13.28;100.00
10460;BME280;54412;51.206;6.888;2023-10-19T01:56:21;98717.97;;;13.31;100.00
10460;BME280;54412;51.206;6.888;2023-10-19T01:58:48;98709.47;;;13.28;100.00
10460;BME280;54412;51.206;6.888;2023-10-19T02:01:16;98706.69;;;13.39;100.00
10460;BME280;54412;51.206;6.888;2023-10-19T02:03:49;98700.00;;;13.35;100.00
10460;BME280;54412;51.206;6.888;2023-10-19T02:06:18;98695.84;;;13.32;100.00
10460;BME280;54412;51.206;6.888;2023-10-19T02:09:09;98697.94;;;13.29;100.00
10460;BME280;54412;51.206;6.888;2023-10-19T02:11:56;98710.59;;;13.44;100.00
10460;BME280;54412;51.206;6.888;2023-10-19T02:14:24;98707.09;;;13.53;100.00
10460;BME280;54412;51.206;6.888;2023-10-19T02:16:55;98705.41;;;13.62;100.00
10460;BME280;54412;51.206;6.888;2023-10-19T02:19:24;98692.00;;;13.63;100.00
10460;BME280;54412;51.206;6.888;2023-10-19T02:22:02;98692.31;;;13.60;100.00
10460;BME280;54412;51.206;6.888;2023-10-19T02:24:29;98697.06;;;13.57;100.00
10460;BME280;54412;51.206;6.888;2023-10-19T02:26:57;98704.03;;;13.48;100.00
10460;BME280;54412;51.206;6.888;2023-10-19T02:29:23;98701.09;;;13.61;100.00
10460;BME280;54412;51.206;6.888;2023-10-19T02:31:49;98705.69;;;13.59;100.00
10460;BME280;54412;51.206;6.888;2023-10-19T02:34:18;98695.94;;;13.59;100.00
10460;BME280;54412;51.206;6.888;2023-10-19T02:36:46;98686.16;;;13.60;100.00
10460;BME280;54412;51.206;6.888;2023-10-19T02:39:14;98684.34;;;13.70;100.00
10460;BME280;54412;51.206;6.888;2023-10-19T02:41:47;98678.50;;;13.76;100.00
10460;BME280;54412;51.206;6.888;2023-10-19T02:46:45;98684.50;;;13.69;100.00
10460;BME280;54412;51.206;6.888;2023-10-19T02:49:13;98683.50;;;13.70;100.00
10460;BME280;54412;51.206;6.888;2023-10-19T02:51:42;98673.41;;;13.92;100.00
10460;BME280;54412;51.206;6.888;2023-10-19T02:54:16;98682.72;;;13.96;100.00
10460;BME280;54412;51.206;6.888;2023-10-19T02:56:52;98678.44;;;13.86;100.00
10460;BME280;54412;51.206;6.888;2023-10-19T02:59:21;98686.84;;;13.81;100.00
10460;BME280;54412;51.206;6.888;2023-10-19T03:01:52;98680.81;;;13.89;100.00
10460;BME280;54412;51.206;6.888;2023-10-19T03:04:19;98678.03;;;13.90;100.00
10460;BME280;54412;51.206;6.888;2023-10-19T03:06:45;98675.53;;;13.89;100.00
10460;BME280;54412;51.206;6.888;2023-10-19T03:09:11;98674.50;;;13.99;100.00
10460;BME280;54412;51.206;6.888;2023-10-19T03:11:42;98677.00;;;14.01;100.00
10460;BME280;54412;51.206;6.888;2023-10-19T03:14:10;98663.56;;;14.12;100.00
10460;BME280;54412;51.206;6.888;2023-10-19T03:16:38;98661.63;;;14.14;100.00
10460;BME280;54412;51.206;6.888;2023-10-19T03:19:07;98656.72;;;14.09;100.00
10460;BME280;54412;51.206;6.888;2023-10-19T03:21:34;98650.34;;;14.02;100.00
10460;BME280;54412;51.206;6.888;2023-10-19T03:24:08;98651.03;;;14.04;100.00
10460;BME280;54412;51.206;6.888;2023-10-19T03:27:08;98650.88;;;14.06;100.00
10460;BME280;54412;51.206;6.888;2023-10-19T03:29:44;98645.25;;;14.18;100.00
10460;BME280;54412;51.206;6.888;2023-10-19T03:32:22;98649.28;;;14.22;100.00
10460;BME280;54412;51.206;6.888;2023-10-19T03:34:52;98646.53;;;14.14;100.00
10460;BME280;54412;51.206;6.888;2023-10-19T03:37:28;98634.66;;;14.18;100.00
10460;BME280;54412;51.206;6.888;2023-10-19T03:39:56;98647.50;;;14.13;100.00
10460;BME280;54412;51.206;6.888;2023-10-19T03:42:22;98650.50;;;14.01;100.00
10460;BME280;54412;51.206;6.888;2023-10-19T03:44:52;98640.69;;;14.11;100.00
10460;BME280;54412;51.206;6.888;2023-10-19T03:47:22;98644.13;;;14.21;100.00
10460;BME280;54412;51.206;6.888;2023-10-19T03:49:53;98632.00;;;14.18;100.00
10460;BME280;54412;51.206;6.888;2023-10-19T03:52:19;98634.22;;;14.23;100.00
10460;BME280;54412;51.206;6.888;2023-10-19T03:54:46;98632.13;;;14.26;100.00
10460;BME280;54412;51.206;6.888;2023-10-19T03:57:15;98611.84;;;14.35;100.00
10460;BME280;54412;51.206;6.888;2023-10-19T03:59:45;98615.66;;;14.23;100.00
10460;BME280;54412;51.206;6.888;2023-10-19T04:02:12;98616.88;;;14.28;100.00
10460;BME280;54412;51.206;6.888;2023-10-19T04:04:47;98612.69;;;14.35;100.00
10460;BME280;54412;51.206;6.888;2023-10-19T04:07:16;98615.63;;;14.32;100.00
10460;BME280;54412;51.206;6.888;2023-10-19T04:12:31;98613.13;;;14.31;100.00
10460;BME280;54412;51.206;6.888;2023-10-19T04:14:59;98614.13;;;14.47;100.00
10460;BME280;54412;51.206;6.888;2023-10-19T04:17:47;98617.88;;;14.54;100.00
10460;BME280;54412;51.206;6.888;2023-10-19T04:20:17;98610.25;;;14.42;100.00
10460;BME280;54412;51.206;6.888;2023-10-19T04:22:49;98607.63;;;14.42;100.00
10460;BME280;54412;51.206;6.888;2023-10-19T04:25:17;98607.75;;;14.40;100.00
10460;BME280;54412;51.206;6.888;2023-10-19T04:27:51;98610.50;;;14.48;100.00
10460;BME280;54412;51.206;6.888;2023-10-19T04:30:17;98616.53;;;14.41;100.00
10460;BME280;54412;51.206;6.888;2023-10-19T04:32:50;98616.53;;;14.41;100.00
10460;BME280;54412;51.206;6.888;2023-10-19T04:35:17;98617.88;;;14.27;100.00
10460;BME280;54412;51.206;6.888;2023-10-19T04:37:54;98617.16;;;14.35;100.00
10460;BME280;54412;51.206;6.888;2023-10-19T04:40:22;98611.31;;;14.31;100.00
10460;BME280;54412;51.206;6.888;2023-10-19T04:42:50;98612.59;;;14.27;100.00
10460;BME280;54412;51.206;6.888;2023-10-19T04:45:16;98615.25;;;14.27;100.00
10460;BME280;54412;51.206;6.888;2023-10-19T04:47:42;98610.56;;;14.39;100.00
10460;BME280;54412;51.206;6.888;2023-10-19T04:50:10;98615.19;;;14.37;100.00
10460;BME280;54412;51.206;6.888;2023-10-19T04:52:38;98605.69;;;14.34;100.00
10460;BME280;54412;51.206;6.888;2023-10-19T04:55:04;98612.16;;;14.32;100.00
10460;BME280;54412;51.206;6.888;2023-10-19T04:57:30;98608.84;;;14.47;100.00
10460;BME280;54412;51.206;6.888;2023-10-19T04:59:57;98606.34;;;14.46;100.00
10460;BME280;54412;51.206;6.888;2023-10-19T05:02:23;98609.16;;;14.44;100.00
10460;BME280;54412;51.206;6.888;2023-10-19T05:04:49;98612.38;;;14.38;100.00
10460;BME280;54412;51.206;6.888;2023-10-19T05:07:15;98619.41;;;14.57;100.00
10460;BME280;54412;51.206;6.888;2023-10-19T05:09:44;98623.00;;;14.56;100.00
10460;BME280;54412;51.206;6.888;2023-10-19T05:12:11;98619.75;;;14.44;100.00
10460;BME280;54412;51.206;6.888;2023-10-19T05:14:38;98616.31;;;14.34;100.00
10460;BME280;54412;51.206;6.888;2023-10-19T05:17:08;98619.50;;;14.38;100.00
10460;BME280;54412;51.206;6.888;2023-10-19T05:19:38;98625.59;;;14.48;100.00
10460;BME280;54412;51.206;6.888;2023-10-19T05:22:09;98619.81;;;14.52;100.00
10460;BME280;54412;51.206;6.888;2023-10-19T05:24:36;98613.28;;;14.47;100.00
10460;BME280;54412;51.206;6.888;2023-10-19T05:27:01;98616.75;;;14.57;100.00
10460;BME280;54412;51.206;6.888;2023-10-19T05:29:28;98610.59;;;14.56;100.00
10460;BME280;54412;51.206;6.888;2023-10-19T05:31:56;98607.84;;;14.48;100.00
10460;BME280;54412;51.206;6.888;2023-10-19T05:34:26;98615.06;;;14.56;100.00
10460;BME280;54412;51.206;6.888;2023-10-19T05:36:52;98611.34;;;14.49;100.00
10460;BME280;54412;51.206;6.888;2023-10-19T05:39:19;98606.50;;;14.80;100.00
10460;BME280;54412;51.206;6.888;2023-10-19T05:41:46;98611.59;;;14.73;100.00
10460;BME280;54412;51.206;6.888;2023-10-19T05:44:12;98615.59;;;14.77;100.00
10460;BME280;54412;51.206;6.888;2023-10-19T05:46:38;98619.03;;;14.70;100.00
10460;BME280;54412;51.206;6.888;2023-10-19T05:49:06;98623.69;;;14.58;100.00
10460;BME280;54412;51.206;6.888;2023-10-19T05:51:32;98622.56;;;14.60;100.00
10460;BME280;54412;51.206;6.888;2023-10-19T05:53:58;98622.28;;;14.81;100.00
10460;BME280;54412;51.206;6.888;2023-10-19T05:56:30;98623.84;;;14.56;100.00
10460;BME280;54412;51.206;6.888;2023-10-19T05:58:57;98620.56;;;14.62;100.00
10460;BME280;54412;51.206;6.888;2023-10-19T06:01:25;98622.03;;;14.57;100.00
10460;BME280;54412;51.206;6.888;2023-10-19T06:03:52;98635.31;;;14.57;100.00
10460;BME280;54412;51.206;6.888;2023-10-19T06:06:19;98628.91;;;14.50;100.00
10460;BME280;54412;51.206;6.888;2023-10-19T06:08:45;98639.03;;;14.64;100.00
10460;BME280;54412;51.206;6.888;2023-10-19T06:11:11;98632.50;;;14.58;100.00
10460;BME280;54412;51.206;6.888;2023-10-19T06:13:36;98624.59;;;14.49;100.00
10460;BME280;54412;51.206;6.888;2023-10-19T06:16:02;98641.16;;;14.60;100.00
10460;BME280;54412;51.206;6.888;2023-10-19T06:18:31;98643.31;;;14.47;100.00
10460;BME280;54412;51.206;6.888;2023-10-19T06:20:57;98638.53;;;14.51;100.00
10460;BME280;54412;51.206;6.888;2023-10-19T06:23:23;98645.34;;;14.53;100.00
10460;BME280;54412;51.206;6.888;2023-10-19T06:25:48;98655.69;;;14.74;100.00
10460;BME280;54412;51.206;6.888;2023-10-19T06:28:17;98656.22;;;14.60;100.00
10460;BME280;54412;51.206;6.888;2023-10-19T06:30:43;98651.66;;;14.52;100.00
10460;BME280;54412;51.206;6.888;2023-10-19T06:33:09;98654.31;;;14.70;100.00
10460;BME280;54412;51.206;6.888;2023-10-19T06:35:34;98657.81;;;14.71;100.00
10460;BME280;54412;51.206;6.888;2023-10-19T06:38:03;98649.53;;;14.56;100.00
10460;BME280;54412;51.206;6.888;2023-10-19T06:40:30;98652.94;;;14.48;100.00
10460;BME280;54412;51.206;6.888;2023-10-19T06:42:58;98651.97;;;14.49;100.00
10460;BME280;54412;51.206;6.888;2023-10-19T06:45:25;98658.19;;;14.58;100.00
10460;BME280;54412;51.206;6.888;2023-10-19T06:47:51;98653.78;;;14.66;100.00
10460;BME280;54412;51.206;6.888;2023-10-19T06:50:20;98666.00;;;14.59;100.00
10460;BME280;54412;51.206;6.888;2023-10-19T06:52:47;98655.22;;;14.61;100.00
10460;BME280;54412;51.206;6.888;2023-10-19T06:55:16;98660.63;;;14.69;100.00
10460;BME280;54412;51.206;6.888;2023-10-19T06:57:53;98660.38;;;14.62;100.00
10460;BME280;54412;51.206;6.888;2023-10-19T07:00:21;98656.81;;;14.54;100.00
10460;BME280;54412;51.206;6.888;2023-10-19T07:02:51;98662.53;;;14.77;100.00
10460;BME280;54412;51.206;6.888;2023-10-19T07:05:19;98660.31;;;14.72;100.00
10460;BME280;54412;51.206;6.888;2023-10-19T07:07:48;98661.06;;;14.64;100.00
10460;BME280;54412;51.206;6.888;2023-10-19T07:10:15;98660.31;;;14.54;100.00
10460;BME280;54412;51.206;6.888;2023-10-19T07:12:46;98670.41;;;14.86;100.00
10460;BME280;54412;51.206;6.888;2023-10-19T07:15:13;98662.28;;;14.70;100.00
10460;BME280;54412;51.206;6.888;2023-10-19T07:17:43;98661.06;;;14.64;100.00
10460;BME280;54412;51.206;6.888;2023-10-19T07:20:11;98671.75;;;14.55;100.00
10460;BME280;54412;51.206;6.888;2023-10-19T07:22:59;98666.47;;;14.73;100.00
10460;BME280;54412;51.206;6.888;2023-10-19T07:25:28;98676.34;;;14.80;100.00
10460;BME280;54412;51.206;6.888;2023-10-19T07:27:55;98678.84;;;14.82;100.00
10460;BME280;54412;51.206;6.888;2023-10-19T07:30:21;98672.25;;;14.86;100.00
10460;BME280;54412;51.206;6.888;2023-10-19T07:32:52;98672.25;;;15.03;100.00
10460;BME280;54412;51.206;6.888;2023-10-19T07:35:25;98678.84;;;14.99;100.00
10460;BME280;54412;51.206;6.888;2023-10-19T07:37:52;98675.91;;;15.20;100.00
10460;BME280;54412;51.206;6.888;2023-10-19T07:40:18;98675.38;;;15.16;100.00
10460;BME280;54412;51.206;6.888;2023-10-19T07:42:45;98665.34;;;15.10;100.00
10460;BME280;54412;51.206;6.888;2023-10-19T07:45:12;98672.84;;;14.80;100.00
10460;BME280;54412;51.206;6.888;2023-10-19T07:47:41;98666.72;;;15.14;100.00
10460;BME280;54412;51.206;6.888;2023-10-19T07:50:11;98668.91;;;15.01;100.00
10460;BME280;54412;51.206;6.888;2023-10-19T07:52:45;98668.91;;;15.01;100.00
10460;BME280;54412;51.206;6.888;2023-10-19T07:55:17;98673.09;;;15.04;100.00
10460;BME280;54412;51.206;6.888;2023-10-19T07:57:43;98675.75;;;15.04;100.00
10460;BME280;54412;51.206;6.888;2023-10-19T08:00:11;98668.81;;;14.93;100.00
10460;BME280;54412;51.206;6.888;2023-10-19T08:02:39;98666.03;;;15.12;100.00
10460;BME280;54412;51.206;6.888;2023-10-19T08:05:08;98662.75;;;15.18;100.00
10460;BME280;54412;51.206;6.888;2023-10-19T08:07:34;98667.25;;;15.18;100.00
10460;BME280;54412;51.206;6.888;2023-10-19T08:10:00;98661.25;;;15.16;100.00
10460;BME280;54412;51.206;6.888;2023-10-19T08:12:27;98660.72;;;15.12;100.00
10460;BME280;54412;51.206;6.888;2023-10-19T08:14:53;98666.84;;;15.30;100.00
10460;BME280;54412;51.206;6.888;2023-10-19T08:17:21;98662.59;;;15.55;100.00
10460;BME280;54412;51.206;6.888;2023-10-19T08:19:47;98661.06;;;15.52;100.00
10460;BME280;54412;51.206;6.888;2023-10-19T08:22:13;98657.59;;;15.52;100.00
10460;BME280;54412;51.206;6.888;2023-10-19T08:24:40;98656.81;;;15.59;100.00
10460;BME280;54412;51.206;6.888;2023-10-19T08:27:09;98644.66;;;15.57;100.00
10460;BME280;54412;51.206;6.888;2023-10-19T08:29:37;98653.50;;;15.57;100.00
10460;BME280;54412;51.206;6.888;2023-10-19T08:32:03;98657.34;;;15.63;100.00
10460;BME280;54412;51.206;6.888;2023-10-19T08:34:29;98651.38;;;15.69;100.00
10460;BME280;54412;51.206;6.888;2023-10-19T08:36:57;98640.81;;;15.77;100.00
10460;BME280;54412;51.206;6.888;2023-10-19T08:39:23;98637.28;;;15.68;100.00
10460;BME280;54412;51.206;6.888;2023-10-19T08:41:50;98641.25;;;15.90;100.00
10460;BME280;54412;51.206;6.888;2023-10-19T08:44:20;98635.66;;;15.76;100.00
10460;BME280;54412;51.206;6.888;2023-10-19T08:46:46;98644.16;;;15.79;100.00
10460;BME280;54412;51.206;6.888;2023-10-19T08:49:14;98642.59;;;15.68;100.00
10460;BME280;54412;51.206;6.888;2023-10-19T08:51:46;98645.28;;;15.77;100.00
10460;BME280;54412;51.206;6.888;2023-10-19T08:54:13;98642.63;;;15.77;100.00
10460;BME280;54412;51.206;6.888;2023-10-19T08:56:41;98648.13;;;15.75;100.00
10460;BME280;54412;51.206;6.888;2023-10-19T08:59:16;98644.25;;;15.69;100.00
10460;BME280;54412;51.206;6.888;2023-10-19T09:01:42;98641.44;;;15.71;100.00
10460;BME280;54412;51.206;6.888;2023-10-19T09:04:10;98641.25;;;15.64;100.00
10460;BME280;54412;51.206;6.888;2023-10-19T09:06:37;98644.69;;;15.83;100.00
10460;BME280;54412;51.206;6.888;2023-10-19T09:09:13;98640.81;;;15.77;100.00
10460;BME280;54412;51.206;6.888;2023-10-19T09:11:43;98634.91;;;15.91;100.00
10460;BME280;54412;51.206;6.888;2023-10-19T09:14:09;98636.94;;;15.97;100.00
10460;BME280;54412;51.206;6.888;2023-10-19T09:16:53;98637.03;;;16.13;100.00
10460;BME280;54412;51.206;6.888;2023-10-19T09:19:45;98626.91;;;16.17;100.00
10460;BME280;54412;51.206;6.888;2023-10-19T09:22:13;98619.88;;;16.08;100.00
10460;BME280;54412;51.206;6.888;2023-10-19T09:24:50;98615.53;;;16.40;100.00
10460;BME280;54412;51.206;6.888;2023-10-19T09:27:19;98612.25;;;16.62;100.00
10460;BME280;54412;51.206;6.888;2023-10-19T09:29:48;98609.31;;;17.22;99.71
10460;BME280;54412;51.206;6.888;2023-10-19T09:32:14;98612.97;;;17.69;97.09
10460;BME280;54412;51.206;6.888;2023-10-19T09:34:40;98609.41;;;18.01;94.43
10460;BME280;54412;51.206;6.888;2023-10-19T09:37:10;98611.94;;;17.78;93.52
10460;BME280;54412;51.206;6.888;2023-10-19T09:39:37;98604.13;;;17.77;93.54
10460;BME280;54412;51.206;6.888;2023-10-19T09:42:07;98603.31;;;17.68;93.73
10460;BME280;54412;51.206;6.888;2023-10-19T09:44:44;98609.28;;;17.78;92.44
10460;BME280;54412;51.206;6.888;2023-10-19T09:47:29;98608.63;;;17.84;92.38
10460;BME280;54412;51.206;6.888;2023-10-19T09:49:59;98595.34;;;18.07;91.34
10460;BME280;54412;51.206;6.888;2023-10-19T09:52:25;98600.53;;;18.47;88.97
10460;BME280;54412;51.206;6.888;2023-10-19T09:55:08;98606.63;;;18.86;86.96
10460;BME280;54412;51.206;6.888;2023-10-19T09:58:02;98598.97;;;19.28;83.61
10460;BME280;54412;51.206;6.888;2023-10-19T10:00:29;98587.34;;;19.58;81.89
10460;BME280;54412;51.206;6.888;2023-10-19T10:02:57;98580.06;;;19.82;80.46
10460;BME280;54412;51.206;6.888;2023-10-19T10:10:48;98597.91;;;19.52;80.28
10460;BME280;54412;51.206;6.888;2023-10-19T10:15:57;98597.50;;;19.77;79.22
10460;BME280;54412;51.206;6.888;2023-10-19T10:18:30;98592.56;;;19.15;79.71
10460;BME280;54412;51.206;6.888;2023-10-19T10:21:13;98590.91;;;18.91;81.75
10460;BME280;54412;51.206;6.888;2023-10-19T10:23:50;98587.56;;;18.89;81.18
10460;BME280;54412;51.206;6.888;2023-10-19T10:26:21;98587.72;;;18.96;81.11
10460;BME280;54412;51.206;6.888;2023-10-19T10:29:18;98586.91;;;18.87;82.13
10460;BME280;54412;51.206;6.888;2023-10-19T10:31:48;98579.75;;;18.88;81.51
10460;BME280;54412;51.206;6.888;2023-10-19T10:37:01;98578.78;;;18.81;82.01
10460;BME280;54412;51.206;6.888;2023-10-19T10:39:30;98586.34;;;18.77;82.70
10460;BME280;54412;51.206;6.888;2023-10-19T10:42:01;98587.75;;;18.65;83.75
10460;BME280;54412;51.206;6.888;2023-10-19T10:44:46;98594.94;;;18.64;83.62
10460;BME280;54412;51.206;6.888;2023-10-19T10:47:18;98591.69;;;18.46;83.43
10460;BME280;54412;51.206;6.888;2023-10-19T10:49:58;98581.69;;;18.40;84.07
10460;BME280;54412;51.206;6.888;2023-10-19T10:52:33;98584.22;;;18.42;82.23
10460;BME280;54412;51.206;6.888;2023-10-19T10:55:08;98586.19;;;18.09;84.58
10460;BME280;54412;51.206;6.888;2023-10-19T10:57:39;98584.56;;;18.00;86.15
10460;BME280;54412;51.206;6.888;2023-10-19T11:00:11;98590.31;;;18.20;84.88
10460;BME280;54412;51.206;6.888;2023-10-19T11:02:42;98584.56;;;18.00;85.47
10460;BME280;54412;51.206;6.888;2023-10-19T11:05:13;98576.47;;;18.16;83.68
10460;BME280;54412;51.206;6.888;2023-10-19T11:07:41;98565.34;;;18.05;85.22
10460;BME280;54412;51.206;6.888;2023-10-19T11:10:07;98559.16;;;18.12;84.80
10460;BME280;54412;51.206;6.888;2023-10-19T11:12:36;98566.13;;;18.21;82.93
10460;BME280;54412;51.206;6.888;2023-10-19T11:15:03;98554.09;;;18.25;83.48
10460;BME280;54412;51.206;6.888;2023-10-19T11:17:43;98548.94;;;18.24;83.27
10460;BME280;54412;51.206;6.888;2023-10-19T11:20:22;98542.06;;;18.29;83.94
10460;BME280;54412;51.206;6.888;2023-10-19T11:22:50;98537.34;;;18.31;83.92
10460;BME280;54412;51.206;6.888;2023-10-19T11:25:22;98534.66;;;18.39;83.92
10460;BME280;54412;51.206;6.888;2023-10-19T11:27:48;98536.56;;;18.31;83.92
10460;BME280;54412;51.206;6.888;2023-10-19T11:30:30;98527.03;;;18.28;84.12
10460;BME280;54412;51.206;6.888;2023-10-19T11:33:01;98528.00;;;18.43;82.86
10460;BME280;54412;51.206;6.888;2023-10-19T11:35:29;98526.81;;;18.68;81.58
10460;BME280;54412;51.206;6.888;2023-10-19T11:37:58;98526.97;;;18.44;82.63
10460;BME280;54412;51.206;6.888;2023-10-19T11:40:25;98529.78;;;18.51;81.89
10460;BME280;54412;51.206;6.888;2023-10-19T11:42:52;98515.72;;;18.80;81.33
10460;BME280;54412;51.206;6.888;2023-10-19T11:45:22;98517.00;;;19.06;80.67
10460;BME280;54412;51.206;6.888;2023-10-19T11:47:49;98518.34;;;19.02;80.84
10460;BME280;54412;51.206;6.888;2023-10-19T11:50:16;98522.19;;;18.85;80.79
10460;BME280;54412;51.206;6.888;2023-10-19T11:52:44;98515.53;;;18.81;82.10
10460;BME280;54412;51.206;6.888;2023-10-19T11:55:12;98506.13;;;18.70;82.78
10460;BME280;54412;51.206;6.888;2023-10-19T11:57:42;98507.47;;;18.66;82.40
10460;BME280;54412;51.206;6.888;2023-10-19T12:00:10;98498.56;;;18.51;82.86
10460;BME280;54412;51.206;6.888;2023-10-19T12:02:40;98493.78;;;18.47;83.65
10460;BME280;54412;51.206;6.888;2023-10-19T12:05:09;98497.81;;;18.43;84.03
10460;BME280;54412;51.206;6.888;2023-10-19T12:07:39;98498.81;;;18.42;83.98
10460;BME280;54412;51.206;6.888;2023-10-19T12:10:10;98492.19;;;18.30;85.23
10460;BME280;54412;51.206;6.888;2023-10-19T12:12:39;98494.34;;;18.34;84.60
10460;BME280;54412;51.206;6.888;2023-10-19T12:15:06;98498.66;;;18.35;84.88
10460;BME280;54412;51.206;6.888;2023-10-19T12:17:33;98512.72;;;18.29;85.79
10460;BME280;54412;51.206;6.888;2023-10-19T12:19:59;98503.44;;;18.17;87.05
10460;BME280;54412;51.206;6.888;2023-10-19T12:22:25;98504.06;;;18.27;86.40
10460;BME280;54412;51.206;6.888;2023-10-19T12:24:56;98505.28;;;18.39;85.62
10460;BME280;54412;51.206;6.888;2023-10-19T12:27:23;98500.19;;;18.30;86.36
10460;BME280;54412;51.206;6.888;2023-10-19T12:29:50;98497.22;;;18.25;86.55
10460;BME280;54412;51.206;6.888;2023-10-19T12:32:18;98496.38;;;18.24;86.71
10460;BME280;54412;51.206;6.888;2023-10-19T12:34:44;98491.22;;;18.23;86.23
10460;BME280;54412;51.206;6.888;2023-10-19T12:37:10;98496.56;;;18.23;86.61
10460;BME280;54412;51.206;6.888;2023-10-19T12:39:38;98495.56;;;18.24;86.65
10460;BME280;54412;51.206;6.888;2023-10-19T12:42:13;98493.06;;;18.22;86.84
10460;BME280;54412;51.206;6.888;2023-10-19T12:44:40;98490.38;;;18.22;87.20
10460;BME280;54412;51.206;6.888;2023-10-19T12:47:10;98491.41;;;18.21;87.63
10460;BME280;54412;51.206;6.888;2023-10-19T12:49:41;98511.53;;;18.01;88.10
10460;BME280;54412;51.206;6.888;2023-10-19T12:52:10;98514.09;;;17.87;87.55
10460;BME280;54412;51.206;6.888;2023-10-19T12:54:37;98511.25;;;17.88;87.34
10460;BME280;54412;51.206;6.888;2023-10-19T12:57:06;98500.25;;;17.91;86.99
10460;BME280;54412;51.206;6.888;2023-10-19T12:59:36;98517.69;;;18.02;86.60
10460;BME280;54412;51.206;6.888;2023-10-19T13:02:06;98501.56;;;17.95;88.07
10460;BME280;54412;51.206;6.888;2023-10-19T13:04:34;98501.22;;;17.98;87.86
10460;BME280;54412;51.206;6.888;2023-10-19T13:07:00;98496.06;;;17.89;88.49
10460;BME280;54412;51.206;6.888;2023-10-19T13:09:28;98490.63;;;17.82;88.32
10460;BME280;54412;51.206;6.888;2023-10-19T13:11:58;98500.25;;;17.91;88.05
10460;BME280;54412;51.206;6.888;2023-10-19T13:14:25;98499.97;;;17.78;88.95
10460;BME280;54412;51.206;6.888;2023-10-19T13:16:51;98510.63;;;17.78;90.09
10460;BME280;54412;51.206;6.888;2023-10-19T13:19:18;98516.63;;;17.80;90.04
10460;BME280;54412;51.206;6.888;2023-10-19T13:21:50;98517.13;;;17.75;90.79
10460;BME280;54412;51.206;6.888;2023-10-19T13:24:18;98516.81;;;17.79;91.15